createdAt,value
2022-07-28T00:00:46.327Z,99.90
2022-07-28T00:03:14.602Z,99.90
2022-07-28T00:05:41.861Z,99.90
2022-07-28T00:08:10.435Z,99.90
2022-07-28T00:10:37.971Z,99.90
2022-07-28T00:13:07.098Z,99.90
2022-07-28T00:15:34.961Z,99.90
2022-07-28T00:18:02.527Z,99.90
2022-07-28T00:20:30.963Z,99.90
2022-07-28T00:22:58.374Z,99.90
2022-07-28T00:25:25.941Z,99.90
2022-07-28T00:27:53.523Z,99.90
2022-07-28T00:30:20.837Z,99.90
2022-07-28T00:32:48.400Z,99.90
2022-07-28T00:35:15.722Z,99.90
2022-07-28T00:37:43.082Z,99.90
2022-07-28T00:40:11.416Z,99.90
2022-07-28T00:42:38.595Z,99.90
2022-07-28T00:45:07.071Z,99.90
2022-07-28T00:47:34.416Z,99.90
2022-07-28T00:50:03.898Z,99.90
2022-07-28T00:52:33.029Z,99.90
2022-07-28T00:55:03.231Z,99.90
2022-07-28T00:57:30.586Z,99.90
2022-07-28T00:59:57.900Z,99.90
2022-07-28T01:02:25.371Z,99.90
2022-07-28T01:04:52.965Z,99.90
2022-07-28T01:07:42.586Z,99.90
2022-07-28T01:10:24.784Z,99.90
2022-07-28T01:13:12.402Z,99.90
2022-07-28T01:15:53.151Z,99.90
2022-07-28T01:18:33.970Z,99.90
2022-07-28T01:21:12.509Z,99.90
2022-07-28T01:24:19.800Z,99.90
2022-07-28T01:27:07.735Z,99.90
2022-07-28T01:30:12.123Z,99.90
2022-07-28T01:32:53.303Z,99.90
2022-07-28T01:35:33.182Z,99.90
2022-07-28T01:38:07.551Z,99.90
2022-07-28T01:40:37.282Z,99.90
2022-07-28T01:43:12.488Z,99.90
2022-07-28T01:45:43.965Z,99.90
2022-07-28T01:48:13.964Z,99.90
2022-07-28T01:50:43.697Z,99.90
2022-07-28T01:53:16.282Z,99.90
2022-07-28T01:55:45.847Z,99.90
2022-07-28T01:58:20.726Z,99.90
2022-07-28T02:00:53.407Z,99.90
2022-07-28T02:03:25.698Z,99.90
2022-07-28T02:05:55.928Z,99.90
2022-07-28T02:08:25.572Z,99.90
2022-07-28T02:11:14.526Z,99.90
2022-07-28T02:13:43.401Z,99.90
2022-07-28T02:16:13.875Z,99.90
2022-07-28T02:18:43.718Z,99.90
2022-07-28T02:21:12.551Z,99.90
2022-07-28T02:23:43.370Z,99.90
2022-07-28T02:26:16.405Z,99.90
2022-07-28T02:28:51.572Z,99.90
2022-07-28T02:31:36.730Z,99.90
2022-07-28T02:34:11.042Z,99.90
2022-07-28T02:36:46.715Z,99.90
2022-07-28T02:39:29.116Z,99.90
2022-07-28T02:42:05.432Z,99.90
2022-07-28T02:44:41.587Z,99.90
2022-07-28T02:47:18.291Z,99.90
2022-07-28T02:49:48.207Z,99.90
2022-07-28T02:52:16.863Z,99.90
2022-07-28T02:54:45.389Z,99.90
2022-07-28T02:57:16.214Z,99.90
2022-07-28T02:59:44.734Z,99.90
2022-07-28T03:02:13.483Z,99.90
2022-07-28T03:04:59.179Z,99.90
2022-07-28T03:07:29.283Z,99.90
2022-07-28T03:09:58.330Z,99.90
2022-07-28T03:12:27.051Z,99.90
2022-07-28T03:14:54.435Z,99.90
2022-07-28T03:17:22.815Z,99.90
2022-07-28T03:19:50.153Z,99.90
2022-07-28T03:22:18.084Z,99.90
2022-07-28T03:24:52.177Z,99.90
2022-07-28T03:27:33.590Z,99.90
2022-07-28T03:30:07.662Z,99.90
2022-07-28T03:32:40.764Z,99.90
2022-07-28T03:35:09.081Z,99.90
2022-07-28T03:38:02.684Z,99.90
2022-07-28T03:40:32.973Z,99.90
2022-07-28T03:43:08.374Z,99.90
2022-07-28T03:45:37.609Z,99.90
2022-07-28T03:48:08.847Z,99.90
2022-07-28T03:50:38.480Z,99.90
2022-07-28T03:53:16.017Z,99.90
2022-07-28T03:55:46.581Z,99.90
2022-07-28T03:58:13.805Z,99.90
2022-07-28T04:00:41.344Z,99.90
2022-07-28T04:03:36.314Z,99.90
2022-07-28T04:05:57.203Z,99.90
2022-07-28T04:08:24.659Z,99.90
2022-07-28T04:10:53.512Z,99.90
2022-07-28T04:13:21.195Z,99.90
2022-07-28T04:15:48.543Z,99.90
2022-07-28T04:18:16.317Z,99.90
2022-07-28T04:20:43.750Z,99.90
2022-07-28T04:23:11.041Z,99.90
2022-07-28T04:25:38.225Z,99.90
2022-07-28T04:28:07.416Z,99.90
2022-07-28T04:30:34.857Z,99.90
2022-07-28T04:33:08.098Z,99.90
2022-07-28T04:35:36.344Z,99.90
2022-07-28T04:38:03.821Z,99.90
2022-07-28T04:40:31.947Z,99.90
2022-07-28T04:42:59.308Z,99.90
2022-07-28T04:45:26.576Z,99.90
2022-07-28T04:47:53.996Z,99.90
2022-07-28T04:50:23.580Z,99.90
2022-07-28T04:52:51.088Z,99.90
2022-07-28T04:55:18.809Z,99.90
2022-07-28T04:57:46.802Z,99.90
2022-07-28T05:00:15.150Z,99.90
2022-07-28T05:02:44.918Z,99.90
2022-07-28T05:05:13.425Z,99.90
2022-07-28T05:07:42.178Z,99.90
2022-07-28T05:10:12.785Z,99.90
2022-07-28T05:12:40.150Z,99.90
2022-07-28T05:15:09.833Z,99.90
2022-07-28T05:17:37.275Z,99.90
2022-07-28T05:20:06.980Z,99.90
2022-07-28T05:22:47.274Z,99.90
2022-07-28T05:25:17.682Z,99.90
2022-07-28T05:27:49.108Z,99.90
2022-07-28T05:30:19.504Z,99.90
2022-07-28T05:32:47.991Z,99.90
2022-07-28T05:35:16.213Z,99.90
2022-07-28T05:37:44.100Z,99.90
2022-07-28T05:40:15.197Z,99.90
2022-07-28T05:42:44.082Z,99.90
2022-07-28T05:45:16.853Z,99.90
2022-07-28T05:47:51.084Z,98.80
2022-07-28T05:50:22.603Z,98.00
2022-07-28T05:52:51.526Z,98.20
2022-07-28T05:55:19.750Z,95.30
2022-07-28T05:57:47.734Z,95.40
2022-07-28T06:00:21.429Z,95.30
2022-07-28T06:02:50.533Z,93.10
2022-07-28T06:05:23.276Z,93.50
2022-07-28T06:07:51.866Z,93.40
2022-07-28T06:10:23.398Z,92.30
2022-07-28T06:12:55.084Z,91.30
2022-07-28T06:15:28.243Z,90.40
2022-07-28T06:17:56.069Z,89.80
2022-07-28T06:20:25.212Z,87.70
2022-07-28T06:22:55.562Z,84.20
2022-07-28T06:25:28.617Z,81.90
2022-07-28T06:27:58.852Z,82.20
2022-07-28T06:30:27.423Z,79.30
2022-07-28T06:32:56.892Z,77.60
2022-07-28T06:35:25.026Z,77.90
2022-07-28T06:37:54.973Z,77.10
2022-07-28T06:40:23.090Z,74.80
2022-07-28T06:42:51.731Z,74.80
2022-07-28T06:45:21.891Z,75.60
2022-07-28T06:47:51.221Z,75.90
2022-07-28T06:50:24.845Z,74.40
2022-07-28T06:52:58.938Z,75.50
2022-07-28T06:55:34.438Z,71.00
2022-07-28T06:58:05.764Z,71.40
2022-07-28T07:00:33.812Z,68.70
2022-07-28T07:03:01.392Z,65.80
2022-07-28T07:05:32.535Z,64.40
2022-07-28T07:08:06.201Z,64.40
2022-07-28T07:10:36.367Z,62.20
2022-07-28T07:13:04.406Z,59.50
2022-07-28T07:15:31.866Z,58.20
2022-07-28T07:18:02.191Z,56.60
2022-07-28T07:20:29.364Z,55.50
2022-07-28T07:22:56.823Z,54.80
2022-07-28T07:25:26.612Z,54.40
2022-07-28T07:27:54.086Z,55.00
2022-07-28T07:30:21.331Z,53.10
2022-07-28T07:32:49.459Z,52.60
2022-07-28T07:35:19.779Z,53.10
2022-07-28T07:37:46.951Z,52.00
2022-07-28T07:40:14.429Z,51.30
2022-07-28T07:42:42.002Z,50.10
2022-07-28T07:45:10.113Z,49.30
2022-07-28T07:47:37.622Z,48.50
2022-07-28T07:50:05.582Z,47.80
2022-07-28T07:52:32.859Z,48.70
2022-07-28T07:55:00.513Z,47.20
2022-07-28T07:57:27.893Z,45.60
2022-07-28T07:59:55.109Z,44.70
2022-07-28T08:02:22.512Z,45.30
2022-07-28T08:04:50.595Z,46.00
2022-07-28T08:07:18.513Z,45.40
2022-07-28T08:09:51.891Z,43.40
2022-07-28T08:12:24.700Z,44.10
2022-07-28T08:14:54.507Z,43.70
2022-07-28T08:17:25.812Z,44.10
2022-07-28T08:19:55.866Z,43.10
2022-07-28T08:22:24.338Z,41.70
2022-07-28T08:24:52.562Z,42.50
2022-07-28T08:27:25.916Z,43.00
2022-07-28T08:29:54.001Z,42.30
2022-07-28T08:32:21.143Z,41.90
2022-07-28T08:34:49.097Z,40.50
2022-07-28T08:37:16.240Z,40.30
2022-07-28T08:39:43.453Z,41.20
2022-07-28T08:42:48.173Z,41.40
2022-07-28T08:45:16.580Z,40.80
2022-07-28T08:48:07.321Z,39.60
2022-07-28T08:50:32.418Z,37.60
2022-07-28T08:53:05.130Z,38.00
2022-07-28T08:55:37.877Z,38.70
2022-07-28T08:58:05.735Z,38.10
2022-07-28T09:00:33.312Z,37.90
2022-07-28T09:03:03.616Z,41.50
2022-07-28T09:05:31.793Z,38.90
2022-07-28T09:07:59.890Z,39.80
2022-07-28T09:10:28.300Z,41.80
2022-07-28T09:12:55.949Z,42.20
2022-07-28T09:15:26.545Z,41.50
2022-07-28T09:17:53.894Z,39.60
2022-07-28T09:20:21.467Z,41.10
2022-07-28T09:23:02.615Z,41.50
2022-07-28T09:25:31.198Z,41.60
2022-07-28T09:28:12.126Z,38.30
2022-07-28T09:30:53.953Z,36.70
2022-07-28T09:33:40.880Z,34.80
2022-07-28T09:36:16.567Z,36.80
2022-07-28T09:38:44.917Z,35.30
2022-07-28T09:41:13.109Z,36.90
2022-07-28T09:43:44.202Z,35.50
2022-07-28T09:46:29.183Z,34.60
2022-07-28T09:49:04.149Z,34.20
2022-07-28T09:51:36.148Z,32.10
2022-07-28T09:54:14.551Z,31.80
2022-07-28T09:56:46.575Z,30.90
2022-07-28T09:59:16.190Z,29.80
2022-07-28T10:01:54.492Z,31.10
2022-07-28T10:04:33.870Z,32.80
2022-07-28T10:07:16.005Z,27.80
2022-07-28T10:09:44.715Z,29.60
2022-07-28T10:12:27.562Z,29.70
2022-07-28T10:14:58.487Z,28.70
2022-07-28T10:17:35.091Z,28.90
2022-07-28T10:20:06.627Z,27.90
2022-07-28T10:22:43.093Z,27.00
2022-07-28T10:25:14.841Z,27.40
2022-07-28T10:27:46.376Z,26.90
2022-07-28T10:30:15.410Z,27.80
2022-07-28T10:32:45.565Z,27.30
2022-07-28T10:35:18.389Z,26.50
2022-07-28T10:37:58.893Z,25.80
2022-07-28T10:40:32.197Z,24.30
2022-07-28T10:43:00.986Z,26.10
2022-07-28T10:45:48.135Z,25.20
2022-07-28T10:48:17.837Z,26.40
2022-07-28T10:50:45.918Z,25.10
2022-07-28T10:53:34.362Z,25.50
2022-07-28T10:56:39.324Z,25.00
2022-07-28T10:59:49.261Z,24.70
2022-07-28T11:02:45.949Z,25.20
2022-07-28T11:05:44.487Z,24.10
2022-07-28T11:08:18.765Z,24.30
2022-07-28T11:11:00.713Z,21.90
2022-07-28T11:13:41.241Z,21.40
2022-07-28T11:16:15.848Z,21.50
2022-07-28T11:19:36.057Z,21.50
2022-07-28T11:22:15.701Z,21.00
2022-07-28T11:24:58.417Z,20.30
2022-07-28T11:27:46.158Z,21.20
2022-07-28T11:30:42.287Z,22.30
2022-07-28T11:33:10.595Z,22.50
2022-07-28T11:35:41.144Z,23.10
2022-07-28T11:38:11.726Z,24.80
2022-07-28T11:40:46.925Z,23.80
2022-07-28T11:43:27.926Z,24.30
2022-07-28T11:46:11.403Z,24.20
2022-07-28T11:48:43.080Z,23.70
2022-07-28T11:51:12.892Z,23.20
2022-07-28T11:53:48.429Z,23.60
2022-07-28T11:56:36.250Z,24.10
2022-07-28T11:59:07.121Z,23.50
2022-07-28T12:01:38.178Z,23.00
2022-07-28T12:04:13.389Z,23.20
2022-07-28T12:06:51.283Z,24.20
2022-07-28T12:09:42.068Z,22.80
2022-07-28T12:12:10.363Z,23.50
2022-07-28T12:14:41.294Z,23.70
2022-07-28T12:17:08.893Z,22.80
2022-07-28T12:19:36.472Z,23.90
2022-07-28T12:22:12.625Z,23.90
2022-07-28T12:24:45.768Z,23.40
2022-07-28T12:27:15.191Z,23.10
2022-07-28T12:29:47.832Z,23.90
2022-07-28T12:32:17.756Z,24.20
2022-07-28T12:34:46.224Z,25.00
2022-07-28T12:37:14.865Z,25.50
2022-07-28T12:39:44.483Z,25.90
2022-07-28T12:42:14.159Z,25.80
2022-07-28T12:44:54.490Z,25.90
2022-07-28T12:47:28.475Z,26.20
2022-07-28T12:50:18.385Z,25.90
2022-07-28T12:53:09.956Z,26.20
2022-07-28T12:55:39.424Z,25.40
2022-07-28T12:58:08.074Z,25.50
2022-07-28T13:00:36.779Z,26.00
2022-07-28T13:03:27.109Z,26.50
2022-07-28T13:06:02.424Z,26.50
2022-07-28T13:08:55.646Z,26.80
2022-07-28T13:11:45.857Z,27.10
2022-07-28T13:14:14.940Z,27.60
2022-07-28T13:16:42.984Z,29.20
2022-07-28T13:19:21.934Z,30.40
2022-07-28T13:22:01.707Z,30.80
2022-07-28T13:24:32.519Z,31.50
2022-07-28T13:27:01.991Z,31.40
2022-07-28T13:29:32.692Z,31.50
2022-07-28T13:32:00.704Z,31.00
2022-07-28T13:34:28.063Z,30.50
2022-07-28T13:36:57.132Z,30.60
2022-07-28T13:39:25.441Z,30.90
2022-07-28T13:41:57.098Z,31.30
2022-07-28T13:44:30.903Z,30.80
2022-07-28T13:47:00.227Z,31.10
2022-07-28T13:49:29.459Z,31.30
2022-07-28T13:51:57.324Z,30.70
2022-07-28T13:54:25.336Z,30.50
2022-07-28T13:56:53.769Z,31.00
2022-07-28T13:59:21.322Z,31.50
2022-07-28T14:01:49.779Z,31.80
2022-07-28T14:04:19.082Z,31.20
2022-07-28T14:06:49.316Z,31.90
2022-07-28T14:09:18.706Z,31.60
2022-07-28T14:11:49.845Z,31.00
2022-07-28T14:14:25.321Z,30.30
2022-07-28T14:16:56.044Z,30.80
2022-07-28T14:19:38.933Z,31.50
2022-07-28T14:22:13.809Z,30.60
2022-07-28T14:24:44.397Z,29.80
2022-07-28T14:27:12.107Z,30.40
2022-07-28T14:29:40.613Z,30.90
2022-07-28T14:32:08.131Z,30.70
2022-07-28T14:34:36.298Z,30.00
2022-07-28T14:37:09.044Z,30.10
2022-07-28T14:39:38.676Z,30.40
2022-07-28T14:42:07.253Z,30.60
2022-07-28T14:44:34.743Z,30.10
2022-07-28T14:47:02.904Z,30.00
2022-07-28T14:49:30.586Z,30.60
2022-07-28T14:51:59.578Z,31.70
2022-07-28T14:54:27.997Z,32.30
2022-07-28T14:56:55.469Z,31.20
2022-07-28T14:59:23.007Z,31.60
2022-07-28T15:01:50.621Z,31.70
2022-07-28T15:04:21.257Z,34.60
2022-07-28T15:06:48.588Z,43.20
2022-07-28T15:09:16.028Z,40.00
2022-07-28T15:11:45.022Z,46.00
2022-07-28T15:14:12.681Z,42.00
2022-07-28T15:16:42.854Z,44.30
2022-07-28T15:19:11.311Z,45.90
2022-07-28T15:21:40.863Z,44.40
2022-07-28T15:24:09.840Z,45.60
2022-07-28T15:26:38.045Z,46.00
2022-07-28T15:29:06.397Z,41.30
2022-07-28T15:31:34.273Z,43.00
2022-07-28T15:34:02.499Z,45.20
2022-07-28T15:36:33.062Z,46.30
2022-07-28T15:39:00.553Z,43.30
2022-07-28T15:41:28.728Z,39.30
2022-07-28T15:43:56.473Z,38.40
2022-07-28T15:46:23.947Z,39.90
2022-07-28T15:48:51.570Z,44.80
2022-07-28T15:51:22.607Z,45.90
2022-07-28T15:53:56.533Z,46.80
2022-07-28T15:56:24.078Z,48.40
2022-07-28T15:58:51.287Z,49.00
2022-07-28T16:01:19.005Z,42.90
2022-07-28T16:03:46.167Z,45.80
2022-07-28T16:06:13.637Z,47.50
2022-07-28T16:08:43.431Z,48.10
2022-07-28T16:11:12.025Z,44.70
2022-07-28T16:13:41.491Z,48.40
2022-07-28T16:16:14.406Z,49.00
2022-07-28T16:18:43.645Z,48.80
2022-07-28T16:21:11.840Z,48.50
2022-07-28T16:23:39.448Z,50.80
2022-07-28T16:26:09.342Z,47.70
2022-07-28T16:28:36.862Z,48.00
2022-07-28T16:31:04.537Z,46.60
2022-07-28T16:33:33.512Z,46.20
2022-07-28T16:36:02.624Z,46.00
2022-07-28T16:38:30.496Z,44.80
2022-07-28T16:40:58.629Z,44.60
2022-07-28T16:43:25.995Z,45.10
2022-07-28T16:45:53.530Z,45.30
2022-07-28T16:48:20.955Z,45.50
2022-07-28T16:50:48.568Z,45.70
2022-07-28T16:53:16.472Z,45.30
2022-07-28T16:55:44.610Z,45.50
2022-07-28T16:58:11.777Z,46.20
2022-07-28T17:00:38.934Z,45.50
2022-07-28T17:03:06.141Z,46.20
2022-07-28T17:05:33.402Z,46.40
2022-07-28T17:08:00.568Z,46.10
2022-07-28T17:10:28.170Z,46.70
2022-07-28T17:12:55.768Z,47.10
2022-07-28T17:15:23.627Z,46.50
2022-07-28T17:17:53.033Z,48.00
2022-07-28T17:20:21.213Z,47.90
2022-07-28T17:22:48.810Z,48.40
2022-07-28T17:28:05.689Z,48.30
2022-07-28T17:30:34.253Z,48.70
2022-07-28T17:33:08.448Z,47.70
2022-07-28T17:35:38.741Z,48.30
2022-07-28T17:38:09.358Z,48.50
2022-07-28T17:40:38.472Z,48.40
2022-07-28T17:43:06.326Z,49.10
2022-07-28T17:45:33.776Z,48.80
2022-07-28T17:48:00.968Z,48.80
2022-07-28T17:50:28.344Z,48.80
2022-07-28T17:52:55.865Z,49.40
2022-07-28T17:55:58.017Z,49.40
2022-07-28T17:58:29.101Z,49.70
2022-07-28T18:01:10.006Z,49.50
2022-07-28T18:03:57.907Z,49.40
2022-07-28T18:06:36.538Z,49.60
2022-07-28T18:09:10.729Z,50.00
2022-07-28T18:11:55.817Z,50.30
2022-07-28T18:14:30.528Z,50.10
2022-07-28T18:16:59.519Z,50.70
2022-07-28T18:19:28.354Z,51.10
2022-07-28T18:21:57.039Z,51.30
2022-07-28T18:24:24.642Z,51.30
2022-07-28T18:26:53.056Z,51.60
2022-07-28T18:29:21.987Z,52.10
2022-07-28T18:31:51.806Z,52.70
2022-07-28T18:34:20.870Z,52.80
2022-07-28T18:36:51.212Z,53.40
2022-07-28T18:39:18.985Z,53.90
2022-07-28T18:41:47.783Z,54.40
2022-07-28T18:44:20.053Z,54.80
2022-07-28T18:46:48.591Z,55.40
2022-07-28T18:49:20.266Z,55.70
2022-07-28T18:51:49.467Z,56.00
2022-07-28T18:54:24.994Z,56.70
2022-07-28T18:56:54.798Z,57.20
2022-07-28T18:59:22.487Z,57.70
2022-07-28T19:01:49.927Z,58.60
2022-07-28T19:04:17.553Z,59.40
2022-07-28T19:06:45.069Z,59.80
2022-07-28T19:09:12.441Z,60.60
2022-07-28T19:11:45.280Z,61.20
2022-07-28T19:14:16.297Z,61.90
2022-07-28T19:16:44.785Z,62.50
2022-07-28T19:19:13.063Z,63.30
2022-07-28T19:21:43.303Z,64.10
2022-07-28T19:24:13.155Z,65.10
2022-07-28T19:26:43.242Z,66.10
2022-07-28T19:29:10.667Z,66.80
2022-07-28T19:31:40.160Z,68.00
2022-07-28T19:34:08.027Z,68.60
2022-07-28T19:36:37.557Z,69.30
2022-07-28T19:39:04.857Z,70.20
2022-07-28T19:41:32.389Z,70.90
2022-07-28T19:43:59.610Z,71.60
2022-07-28T19:46:26.919Z,72.60
2022-07-28T19:48:54.617Z,73.60
2022-07-28T19:51:22.120Z,74.40
2022-07-28T19:53:50.054Z,75.10
2022-07-28T19:56:19.163Z,76.50
2022-07-28T19:58:46.367Z,77.20
2022-07-28T20:01:14.214Z,78.00
2022-07-28T20:04:03.471Z,78.60
2022-07-28T20:06:31.448Z,79.50
2022-07-28T20:09:00.183Z,80.10
2022-07-28T20:11:27.441Z,81.30
2022-07-28T20:13:57.095Z,82.00
2022-07-28T20:16:24.970Z,83.10
2022-07-28T20:18:54.572Z,84.70
2022-07-28T20:21:24.619Z,85.60
2022-07-28T20:23:55.772Z,87.10
2022-07-28T20:26:28.181Z,88.10
2022-07-28T20:29:01.301Z,89.40
2022-07-28T20:31:29.067Z,90.30
2022-07-28T20:33:57.582Z,90.80
2022-07-28T20:36:29.393Z,91.30
2022-07-28T20:38:57.615Z,91.80
2022-07-28T20:41:25.281Z,92.10
2022-07-28T20:44:18.304Z,92.50
2022-07-28T20:46:40.848Z,93.10
2022-07-28T20:49:08.945Z,93.80
2022-07-28T20:51:36.394Z,94.60
2022-07-28T20:54:03.918Z,94.90
2022-07-28T20:56:31.059Z,95.10
2022-07-28T20:59:00.549Z,95.50
2022-07-28T21:01:36.557Z,96.20
2022-07-28T21:04:03.922Z,96.70
2022-07-28T21:06:31.976Z,97.20
2022-07-28T21:09:01.950Z,97.70
2022-07-28T21:11:29.954Z,98.20
2022-07-28T21:14:02.596Z,98.50
2022-07-28T21:16:30.027Z,99.30
2022-07-28T21:18:57.301Z,99.60
2022-07-28T21:21:24.819Z,99.90
2022-07-28T21:23:52.470Z,99.90
2022-07-28T21:26:20.014Z,99.90
2022-07-28T21:29:06.276Z,99.90
2022-07-28T21:31:33.578Z,99.90
2022-07-28T21:34:01.833Z,99.90
2022-07-28T21:36:29.241Z,99.90
2022-07-28T21:38:56.576Z,99.90
2022-07-28T21:41:26.880Z,99.90
2022-07-28T21:44:07.160Z,99.90
2022-07-28T21:46:34.508Z,99.90
2022-07-28T21:49:01.941Z,99.90
2022-07-28T21:51:31.500Z,99.90
2022-07-28T21:54:01.051Z,99.90
2022-07-28T21:56:28.650Z,99.90
2022-07-28T21:58:56.088Z,99.90
2022-07-28T22:01:27.210Z,99.90
2022-07-28T22:03:55.308Z,99.90
2022-07-28T22:06:23.192Z,99.90
2022-07-28T22:08:53.786Z,99.90
2022-07-28T22:11:32.374Z,99.90
2022-07-28T22:13:59.852Z,99.90
2022-07-28T22:16:27.090Z,99.90
2022-07-28T22:18:56.843Z,99.90
2022-07-28T22:21:24.121Z,99.90
2022-07-28T22:23:51.343Z,99.90
2022-07-28T22:26:18.532Z,99.90
2022-07-28T22:28:45.858Z,99.90
2022-07-28T22:31:13.249Z,99.90
2022-07-28T22:33:40.889Z,99.90
2022-07-28T22:36:09.074Z,99.90
2022-07-28T22:38:37.026Z,99.90
2022-07-28T22:41:04.532Z,99.90
2022-07-28T22:43:36.067Z,99.90
2022-07-28T22:46:05.396Z,99.90
2022-07-28T22:48:32.876Z,99.90
2022-07-28T22:51:00.026Z,99.90
2022-07-28T22:53:27.526Z,99.90
2022-07-28T22:55:54.786Z,99.90
2022-07-28T22:58:22.133Z,99.90
2022-07-28T23:00:49.897Z,99.90
2022-07-28T23:03:19.405Z,99.90
2022-07-28T23:05:46.942Z,99.90
2022-07-28T23:08:14.296Z,99.90
2022-07-28T23:10:41.493Z,99.90
2022-07-28T23:13:08.901Z,99.90
2022-07-28T23:15:40.966Z,99.90
2022-07-28T23:18:10.710Z,99.90
2022-07-28T23:20:40.202Z,99.90
2022-07-28T23:23:07.674Z,99.90
2022-07-28T23:25:42.990Z,99.90
2022-07-28T23:28:13.759Z,99.90
2022-07-28T23:30:41.573Z,99.90
2022-07-28T23:33:09.062Z,99.90
2022-07-28T23:35:47.959Z,99.90
2022-07-28T23:38:15.719Z,99.90
2022-07-28T23:40:45.336Z,99.90
2022-07-28T23:43:12.568Z,99.90
2022-07-28T23:45:39.922Z,99.90
2022-07-28T23:48:07.740Z,99.90
2022-07-28T23:50:34.849Z,99.90
2022-07-28T23:53:05.153Z,99.90
2022-07-28T23:55:32.384Z,99.90
2022-07-28T23:57:59.578Z,99.90
